Time;durP1;ratioP1;P1;durP2;ratioP2;P2;SDS_P1;SDS_P2;PMS_P1;PMS_P2;Temp;Humidity;BMP_temperature;BMP_pressure;BME280_temperature;BME280_humidity;BME280_pressure;Samples;Min_cycle;Max_cycle;Signal;HPM_P1;HPM_P2
2023/08/22 00:01:11;;;;;;;;;;;;;;;;;;5111550;28;20390;-70
2023/08/22 00:08:35;;;;;;;;;;;;;;;;;;5132086;27;19918;-71
2023/08/22 00:11:01;;;;;;;;;;;;;;;;;;5132177;28;19947;-71
2023/08/22 00:13:42;;;;;;;;;;;;;;;;;;5152988;27;19922;-70
2023/08/22 00:16:08;;;;;;;;;;;;;;;;;;5152762;27;19911;-71
2023/08/22 00:22:26;;;;;;;;;;;;;;;;;;5091589;28;19922;-71
2023/08/22 00:25:17;;;;;;;;;;;;;;;;;;5092171;27;19919;-71
2023/08/22 00:27:43;;;;;;;;;;;;;;;;;;5091382;28;19912;-71
2023/08/22 00:30:09;;;;;;;;;;;;;;;;;;5090893;28;19974;-71
2023/08/22 00:32:35;;;;;;;;;;;;;;;;;;5089870;28;20296;-71
2023/08/22 00:35:01;;;;;;;;;;;;;;;;;;5091253;28;19908;-71
2023/08/22 00:37:27;;;;;;;;;;;;;;;;;;5090942;28;19909;-71
2023/08/22 00:41:32;;;;;;;;;;;;;;;;;;5112349;27;20380;-71
2023/08/22 00:43:58;;;;;;;;;;;;;;;;;;5111289;28;19918;-71
2023/08/22 00:46:25;;;;;;;;;;;;;;;;;;5112219;28;20267;-72
2023/08/22 00:48:51;;;;;;;;;;;;;;;;;;5111639;28;20289;-73
2023/08/22 00:51:17;;;;;;;;;;;;;;;;;;5111386;28;19938;-71
2023/08/22 00:54:52;;;;;;;;;;;;;;;;;;5091413;28;19992;-70
2023/08/22 00:57:18;;;;;;;;;;;;;;;;;;5091187;28;19975;-70
2023/08/22 00:59:44;;;;;;;;;;;;;;;;;;5091296;28;19916;-70
2023/08/22 01:02:10;;;;;;;;;;;;;;;;;;5091461;28;19908;-71
2023/08/22 01:05:20;;;;;;;;;;;;;;;;;;5173487;27;20001;-70
2023/08/22 01:08:59;;;;;;;;;;;;;;;;;;5091811;27;19913;-71
2023/08/22 01:11:25;;;;;;;;;;;;;;;;;;5090906;28;19995;-73
2023/08/22 01:13:51;;;;;;;;;;;;;;;;;;5091280;28;20357;-73
2023/08/22 01:16:17;;;;;;;;;;;;;;;;;;5091226;28;19916;-71
2023/08/22 01:19:20;;;;;;;;;;;;;;;;;;5091276;27;19916;-71
2023/08/22 01:21:46;;;;;;;;;;;;;;;;;;5091328;28;20015;-70
2023/08/22 01:24:12;;;;;;;;;;;;;;;;;;5091234;28;19908;-70
2023/08/22 01:26:38;;;;;;;;;;;;;;;;;;5090845;28;19913;-71
2023/08/22 01:33:50;;;;;;;;;;;;;;;;;;5091089;27;19923;-71
2023/08/22 01:36:16;;;;;;;;;;;;;;;;;;5091335;28;20003;-71
2023/08/22 01:38:41;;;;;;;;;;;;;;;;;;5091290;28;19954;-71
2023/08/22 01:41:07;;;;;;;;;;;;;;;;;;5090517;28;19915;-72
2023/08/22 01:43:33;;;;;;;;;;;;;;;;;;5091190;28;20003;-71
2023/08/22 01:45:59;;;;;;;;;;;;;;;;;;5091200;28;19920;-72
2023/08/22 01:50:55;;;;;;;;;;;;;;;;;;5111664;27;19912;-71
2023/08/22 01:53:21;;;;;;;;;;;;;;;;;;5111798;28;20018;-71
2023/08/22 01:55:47;;;;;;;;;;;;;;;;;;5110398;28;19951;-71
2023/08/22 01:59:28;;;;;;;;;;;;;;;;;;5112412;27;19916;-71
2023/08/22 02:01:54;;;;;;;;;;;;;;;;;;5111402;28;20003;-71
2023/08/22 02:04:20;;;;;;;;;;;;;;;;;;5110350;28;19908;-71
2023/08/22 02:06:46;;;;;;;;;;;;;;;;;;5110351;28;20000;-71
2023/08/22 02:09:56;;;;;;;;;;;;;;;;;;5153032;27;20015;-71
2023/08/22 02:12:22;;;;;;;;;;;;;;;;;;5134310;27;19943;-71
2023/08/22 02:14:47;;;;;;;;;;;;;;;;;;5152413;27;19907;-71
2023/08/22 02:17:28;;;;;;;;;;;;;;;;;;5112614;27;19916;-71
2023/08/22 02:19:54;;;;;;;;;;;;;;;;;;5111730;28;20004;-70
2023/08/22 02:22:20;;;;;;;;;;;;;;;;;;5111265;28;19912;-71
2023/08/22 02:24:46;;;;;;;;;;;;;;;;;;5111607;28;19908;-71
2023/08/22 02:27:13;;;;;;;;;;;;;;;;;;5111529;28;19908;-72
2023/08/22 02:29:39;;;;;;;;;;;;;;;;;;5111139;28;19937;-72
2023/08/22 02:32:05;;;;;;;;;;;;;;;;;;5112064;28;19912;-71
2023/08/22 02:34:31;;;;;;;;;;;;;;;;;;5111428;28;19996;-71
2023/08/22 02:36:57;;;;;;;;;;;;;;;;;;5110887;28;19923;-71
2023/08/22 02:39:23;;;;;;;;;;;;;;;;;;5111376;28;19908;-71
2023/08/22 02:42:56;;;;;;;;;;;;;;;;;;5131971;27;19916;-71
2023/08/22 02:46:45;;;;;;;;;;;;;;;;;;5092152;27;19923;-70
2023/08/22 02:51:24;;;;;;;;;;;;;;;;;;5111379;27;19912;-71
2023/08/22 02:53:50;;;;;;;;;;;;;;;;;;5110376;28;20003;-71
2023/08/22 02:56:16;;;;;;;;;;;;;;;;;;5111662;28;19953;-71
2023/08/22 02:58:42;;;;;;;;;;;;;;;;;;5111215;28;19923;-71
2023/08/22 03:01:08;;;;;;;;;;;;;;;;;;5111526;28;19994;-71
2023/08/22 03:03:34;;;;;;;;;;;;;;;;;;5110971;28;19919;-72
2023/08/22 03:06:00;;;;;;;;;;;;;;;;;;5110125;28;19954;-71
2023/08/22 03:08:26;;;;;;;;;;;;;;;;;;5111349;28;20272;-73
2023/08/22 03:12:37;;;;;;;;;;;;;;;;;;5111464;27;19922;-73
2023/08/22 03:17:03;;;;;;;;;;;;;;;;;;5112564;27;19918;-72
2023/08/22 03:20:23;;;;;;;;;;;;;;;;;;5112400;27;19916;-73
2023/08/22 03:24:07;;;;;;;;;;;;;;;;;;5112426;27;19912;-71
2023/08/22 03:26:33;;;;;;;;;;;;;;;;;;5111375;28;20011;-72
2023/08/22 03:28:59;;;;;;;;;;;;;;;;;;5111630;28;19959;-71
2023/08/22 03:31:28;;;;;;;;;;;;;;;;;;5111675;28;19919;-72
2023/08/22 03:33:54;;;;;;;;;;;;;;;;;;5111157;28;20372;-71
2023/08/22 03:38:40;;;;;;;;;;;;;;;;;;5091724;27;19923;-72
2023/08/22 03:41:41;;;;;;;;;;;;;;;;;;5112562;27;19916;-72
2023/08/22 03:44:32;;;;;;;;;;;;;;;;;;5112218;27;19916;-72
2023/08/22 03:46:58;;;;;;;;;;;;;;;;;;5111274;28;20003;-72
2023/08/22 03:55:20;;;;;;;;;;;;;;;;;;5152936;27;20002;-71
2023/08/22 03:57:46;;;;;;;;;;;;;;;;;;5152846;27;19961;-71
2023/08/22 04:03:56;;;;;;;;;;;;;;;;;;5112030;27;19916;-73
2023/08/22 04:06:22;;;;;;;;;;;;;;;;;;5112003;28;20016;-71
2023/08/22 04:10:02;;;;;;;;;;;;;;;;;;5091624;28;19938;-72
2023/08/22 04:12:28;;;;;;;;;;;;;;;;;;5091485;28;19912;-72
2023/08/22 04:16:00;;;;;;;;;;;;;;;;;;5111341;27;19919;-71
2023/08/22 04:18:26;;;;;;;;;;;;;;;;;;5111621;28;19947;-71
2023/08/22 04:20:51;;;;;;;;;;;;;;;;;;5111175;28;19908;-71
2023/08/22 04:23:17;;;;;;;;;;;;;;;;;;5111922;28;19908;-71
2023/08/22 04:27:54;;;;;;;;;;;;;;;;;;5111650;27;19918;-71
2023/08/22 04:32:31;;;;;;;;;;;;;;;;;;5111999;27;19916;-71
2023/08/22 04:38:25;;;;;;;;;;;;;;;;;;5092188;27;19923;-71
2023/08/22 04:43:07;;;;;;;;;;;;;;;;;;5091283;27;19916;-71
2023/08/22 04:45:33;;;;;;;;;;;;;;;;;;5091526;28;19995;-71
2023/08/22 04:48:53;;;;;;;;;;;;;;;;;;5111978;27;19916;-71
2023/08/22 04:51:53;;;;;;;;;;;;;;;;;;5112005;27;19916;-71
2023/08/22 04:54:19;;;;;;;;;;;;;;;;;;5112201;28;20382;-71
2023/08/22 04:59:21;;;;;;;;;;;;;;;;;;5092172;27;19923;-71
2023/08/22 05:04:42;;;;;;;;;;;;;;;;;;5091021;27;19938;-71
2023/08/22 05:07:36;;;;;;;;;;;;;;;;;;5071287;28;20270;-71
2023/08/22 05:10:02;;;;;;;;;;;;;;;;;;5071306;28;19999;-71
2023/08/22 05:12:28;;;;;;;;;;;;;;;;;;5070906;28;20308;-70
2023/08/22 05:14:54;;;;;;;;;;;;;;;;;;5071007;28;20315;-71
2023/08/22 05:19:08;;;;;;;;;;;;;;;;;;5090900;27;19916;-71
2023/08/22 05:21:34;;;;;;;;;;;;;;;;;;5091278;28;20010;-71
2023/08/22 05:24:00;;;;;;;;;;;;;;;;;;5091322;28;19908;-71
2023/08/22 05:26:26;;;;;;;;;;;;;;;;;;5090919;28;20368;-71
2023/08/22 05:28:52;;;;;;;;;;;;;;;;;;5091160;28;19932;-71
2023/08/22 05:31:18;;;;;;;;;;;;;;;;;;5090685;28;19912;-71
2023/08/22 05:35:19;;;;;;;;;;;;;;;;;;5112525;27;19916;-71
2023/08/22 05:37:45;;;;;;;;;;;;;;;;;;5106365;28;19922;-70
2023/08/22 05:40:11;;;;;;;;;;;;;;;;;;5109302;28;20360;-70
2023/08/22 05:42:37;;;;;;;;;;;;;;;;;;5111256;28;19991;-70
2023/08/22 05:45:03;;;;;;;;;;;;;;;;;;5110553;28;19943;-70
2023/08/22 05:47:29;;;;;;;;;;;;;;;;;;5109533;28;19912;-71
2023/08/22 05:49:55;;;;;;;;;;;;;;;;;;5111232;28;19908;-71
2023/08/22 05:52:25;;;;;;;;;;;;;;;;;;5109780;28;19958;-70
2023/08/22 05:54:50;;;;;;;;;;;;;;;;;;5111173;28;19923;-69
2023/08/22 05:57:45;;;;;;;;;;;;;;;;;;5111175;27;19912;-70
2023/08/22 06:00:11;;;;;;;;;;;;;;;;;;5110583;28;19912;-69
2023/08/22 06:03:09;;;;;;;;;;;;;;;;;;5173699;27;19915;-70
2023/08/22 06:05:35;;;;;;;;;;;;;;;;;;5173103;27;19922;-72
2023/08/22 06:08:01;;;;;;;;;;;;;;;;;;5158983;27;19914;-67
2023/08/22 06:10:27;;;;;;;;;;;;;;;;;;5168024;27;19962;-68
2023/08/22 06:12:53;;;;;;;;;;;;;;;;;;5170493;27;19907;-67
2023/08/22 06:15:19;;;;;;;;;;;;;;;;;;5151964;27;19911;-69
2023/08/22 06:17:45;;;;;;;;;;;;;;;;;;5150516;27;19994;-68
2023/08/22 06:20:11;;;;;;;;;;;;;;;;;;5151656;27;19911;-68
2023/08/22 06:22:37;;;;;;;;;;;;;;;;;;5169221;27;19923;-68
2023/08/22 06:25:05;;;;;;;;;;;;;;;;;;5154859;27;19942;-69
2023/08/22 06:27:32;;;;;;;;;;;;;;;;;;5148520;27;19998;-68
2023/08/22 06:29:57;;;;;;;;;;;;;;;;;;5155174;27;19907;-68
2023/08/22 06:32:23;;;;;;;;;;;;;;;;;;5150393;27;20255;-69
2023/08/22 06:34:49;;;;;;;;;;;;;;;;;;5170371;27;20411;-68
2023/08/22 06:37:15;;;;;;;;;;;;;;;;;;5162144;27;20371;-67
2023/08/22 06:41:07;;;;;;;;;;;;;;;;;;5149761;27;20443;-69
2023/08/22 06:45:57;;;;;;;;;;;;;;;;;;5088839;27;20403;-67
2023/08/22 06:48:23;;;;;;;;;;;;;;;;;;5089403;28;20357;-68
2023/08/22 06:50:49;;;;;;;;;;;;;;;;;;5080301;28;19915;-70
2023/08/22 06:53:15;;;;;;;;;;;;;;;;;;5071488;28;19919;-69
2023/08/22 06:55:41;;;;;;;;;;;;;;;;;;5070734;28;19947;-68
2023/08/22 06:58:09;;;;;;;;;;;;;;;;;;5075492;28;19916;-68
2023/08/22 07:00:35;;;;;;;;;;;;;;;;;;5088765;28;19950;-68
2023/08/22 07:03:01;;;;;;;;;;;;;;;;;;5089318;28;19909;-69
2023/08/22 07:05:27;;;;;;;;;;;;;;;;;;5089375;28;19931;-68
2023/08/22 07:07:53;;;;;;;;;;;;;;;;;;5078778;28;19944;-69
2023/08/22 07:11:46;;;;;;;;;;;;;;;;;;5089182;27;19920;-66
2023/08/22 07:14:12;;;;;;;;;;;;;;;;;;5089391;28;19959;-69
2023/08/22 07:16:38;;;;;;;;;;;;;;;;;;5087586;28;19967;-70
2023/08/22 07:20:31;;;;;;;;;;;;;;;;;;5100915;27;20308;-72
2023/08/22 07:22:57;;;;;;;;;;;;;;;;;;5090930;28;19912;-71
2023/08/22 07:25:23;;;;;;;;;;;;;;;;;;5087976;28;19999;-71
2023/08/22 07:27:49;;;;;;;;;;;;;;;;;;5088823;28;19920;-71
2023/08/22 07:30:15;;;;;;;;;;;;;;;;;;5088830;28;19908;-70
2023/08/22 07:32:41;;;;;;;;;;;;;;;;;;5090400;28;19927;-71
2023/08/22 07:35:07;;;;;;;;;;;;;;;;;;5089825;28;19912;-69
2023/08/22 07:37:33;;;;;;;;;;;;;;;;;;5087843;28;19912;-70
2023/08/22 07:40:59;;;;;;;;;;;;;;;;;;5107847;27;19920;-68
2023/08/22 07:43:25;;;;;;;;;;;;;;;;;;5108414;28;20493;-71
2023/08/22 07:45:51;;;;;;;;;;;;;;;;;;5107605;28;19908;-69
2023/08/22 07:48:17;;;;;;;;;;;;;;;;;;5108297;28;19920;-68
2023/08/22 07:50:43;;;;;;;;;;;;;;;;;;5108083;28;20327;-69
2023/08/22 07:53:09;;;;;;;;;;;;;;;;;;5107782;28;19908;-68
2023/08/22 07:55:35;;;;;;;;;;;;;;;;;;5107703;28;19912;-68
2023/08/22 07:58:02;;;;;;;;;;;;;;;;;;5113958;28;20021;-69
2023/08/22 08:00:28;;;;;;;;;;;;;;;;;;5116609;27;19920;-69
2023/08/22 08:02:54;;;;;;;;;;;;;;;;;;5107220;28;19908;-69
2023/08/22 08:05:20;;;;;;;;;;;;;;;;;;5114500;28;19907;-71
2023/08/22 08:07:46;;;;;;;;;;;;;;;;;;5108404;28;19919;-69
2023/08/22 08:10:12;;;;;;;;;;;;;;;;;;5106732;28;20006;-74
2023/08/22 08:12:38;;;;;;;;;;;;;;;;;;5105991;28;19912;-72
2023/08/22 08:15:04;;;;;;;;;;;;;;;;;;5106547;28;19931;-71
2023/08/22 08:17:30;;;;;;;;;;;;;;;;;;5107316;27;19912;-71
2023/08/22 08:19:56;;;;;;;;;;;;;;;;;;5106746;28;19916;-71
2023/08/22 08:22:22;;;;;;;;;;;;;;;;;;5108786;28;20368;-71
2023/08/22 08:24:48;;;;;;;;;;;;;;;;;;5109259;28;19915;-68
2023/08/22 08:27:14;;;;;;;;;;;;;;;;;;5109067;28;19915;-67
2023/08/22 08:29:40;;;;;;;;;;;;;;;;;;5110142;28;19912;-70
2023/08/22 08:32:06;;;;;;;;;;;;;;;;;;5108927;28;19953;-69
2023/08/22 08:34:32;;;;;;;;;;;;;;;;;;5106149;28;19970;-71
2023/08/22 08:36:58;;;;;;;;;;;;;;;;;;5108436;28;19912;-70
2023/08/22 08:39:24;;;;;;;;;;;;;;;;;;5109363;28;19967;-72
2023/08/22 08:41:50;;;;;;;;;;;;;;;;;;5108592;28;19908;-70
2023/08/22 08:44:16;;;;;;;;;;;;;;;;;;5108669;28;19916;-72
2023/08/22 08:46:42;;;;;;;;;;;;;;;;;;5105516;28;20022;-71
2023/08/22 08:49:08;;;;;;;;;;;;;;;;;;5108991;28;19920;-70
2023/08/22 08:51:34;;;;;;;;;;;;;;;;;;5091221;28;19912;-69
2023/08/22 08:53:59;;;;;;;;;;;;;;;;;;5091999;28;19912;-71
2023/08/22 08:56:25;;;;;;;;;;;;;;;;;;5093784;28;19919;-72
2023/08/22 08:58:52;;;;;;;;;;;;;;;;;;5093864;28;19919;-70
2023/08/22 09:01:18;;;;;;;;;;;;;;;;;;5092848;28;20062;-68
2023/08/22 09:03:44;;;;;;;;;;;;;;;;;;5091959;28;20695;-70
2023/08/22 09:06:10;;;;;;;;;;;;;;;;;;5080133;28;19999;-70
2023/08/22 09:08:36;;;;;;;;;;;;;;;;;;5076092;28;20015;-70
2023/08/22 09:11:02;;;;;;;;;;;;;;;;;;5097156;28;19939;-72
2023/08/22 09:13:28;;;;;;;;;;;;;;;;;;5093275;28;19995;-70
2023/08/22 09:15:54;;;;;;;;;;;;;;;;;;5093474;28;20026;-71
2023/08/22 09:18:20;;;;;;;;;;;;;;;;;;5104073;28;20374;-69
2023/08/22 09:20:46;;;;;;;;;;;;;;;;;;5093661;28;20760;-70
2023/08/22 09:23:12;;;;;;;;;;;;;;;;;;5092793;28;20283;-71
2023/08/22 09:25:38;;;;;;;;;;;;;;;;;;5113772;28;19908;-70
2023/08/22 09:28:04;;;;;;;;;;;;;;;;;;5097767;28;19919;-71
2023/08/22 09:30:30;;;;;;;;;;;;;;;;;;5093429;28;19912;-71
2023/08/22 09:32:56;;;;;;;;;;;;;;;;;;5091912;28;19918;-70
2023/08/22 09:35:22;;;;;;;;;;;;;;;;;;5107571;28;19951;-70
2023/08/22 09:37:48;;;;;;;;;;;;;;;;;;5113819;28;19931;-70
2023/08/22 09:40:16;;;;;;;;;;;;;;;;;;5114616;28;19939;-72
2023/08/22 09:42:42;;;;;;;;;;;;;;;;;;5110009;28;19920;-71
2023/08/22 09:45:08;;;;;;;;;;;;;;;;;;5094732;28;20330;-72
2023/08/22 09:47:34;;;;;;;;;;;;;;;;;;5093538;28;19908;-71
2023/08/22 09:50:00;;;;;;;;;;;;;;;;;;5092966;28;19931;-71
2023/08/22 09:52:26;;;;;;;;;;;;;;;;;;5096574;28;19957;-70
2023/08/22 09:54:52;;;;;;;;;;;;;;;;;;5093117;28;20322;-72
2023/08/22 09:57:18;;;;;;;;;;;;;;;;;;5094649;28;19978;-73
2023/08/22 09:59:45;;;;;;;;;;;;;;;;;;5094469;28;19920;-72
2023/08/22 10:02:11;;;;;;;;;;;;;;;;;;5093184;28;19908;-73
2023/08/22 10:04:37;;;;;;;;;;;;;;;;;;5114296;28;19908;-71
2023/08/22 10:07:03;;;;;;;;;;;;;;;;;;5114987;28;20131;-73
2023/08/22 10:09:29;;;;;;;;;;;;;;;;;;5115464;28;20089;-73
2023/08/22 10:11:55;;;;;;;;;;;;;;;;;;5115407;28;19908;-73
2023/08/22 10:14:21;;;;;;;;;;;;;;;;;;5115024;28;19937;-73
2023/08/22 10:16:48;;;;;;;;;;;;;;;;;;5115150;28;19907;-71
2023/08/22 10:19:14;;;;;;;;;;;;;;;;;;5115405;28;20418;-72
2023/08/22 10:21:40;;;;;;;;;;;;;;;;;;5114999;28;19943;-72
2023/08/22 10:24:06;;;;;;;;;;;;;;;;;;5115218;28;19961;-72
2023/08/22 10:26:32;;;;;;;;;;;;;;;;;;5113820;28;19957;-72
2023/08/22 10:28:58;;;;;;;;;;;;;;;;;;5114539;28;19953;-73
2023/08/22 10:31:24;;;;;;;;;;;;;;;;;;5115187;28;19915;-74
2023/08/22 10:33:50;;;;;;;;;;;;;;;;;;5113707;28;19908;-71
2023/08/22 10:36:16;;;;;;;;;;;;;;;;;;5114826;28;19912;-72
2023/08/22 10:38:42;;;;;;;;;;;;;;;;;;5114480;28;19908;-72
2023/08/22 10:41:07;;;;;;;;;;;;;;;;;;5112931;28;19919;-72
2023/08/22 10:43:33;;;;;;;;;;;;;;;;;;5113306;28;19912;-71
2023/08/22 10:45:59;;;;;;;;;;;;;;;;;;5114621;28;20326;-69
2023/08/22 10:48:25;;;;;;;;;;;;;;;;;;5113767;28;20276;-71
2023/08/22 10:50:51;;;;;;;;;;;;;;;;;;5114021;28;20046;-73
2023/08/22 10:53:18;;;;;;;;;;;;;;;;;;5114847;28;19955;-73
2023/08/22 10:55:44;;;;;;;;;;;;;;;;;;5114347;28;20014;-72
2023/08/22 10:58:10;;;;;;;;;;;;;;;;;;5114607;28;19962;-73
2023/08/22 11:00:35;;;;;;;;;;;;;;;;;;5114587;28;19962;-73
2023/08/22 11:03:01;;;;;;;;;;;;;;;;;;5114359;28;20352;-74
2023/08/22 11:05:27;;;;;;;;;;;;;;;;;;5114706;28;20356;-74
2023/08/22 11:07:53;;;;;;;;;;;;;;;;;;5114743;28;20403;-72
2023/08/22 11:10:19;;;;;;;;;;;;;;;;;;5114211;28;20006;-73
2023/08/22 11:12:45;;;;;;;;;;;;;;;;;;5114578;28;19915;-71
2023/08/22 11:15:11;;;;;;;;;;;;;;;;;;5114269;28;19915;-71
2023/08/22 11:17:40;;;;;;;;;;;;;;;;;;5112726;28;20284;-71
2023/08/22 11:20:06;;;;;;;;;;;;;;;;;;5114358;28;19915;-70
2023/08/22 11:22:32;;;;;;;;;;;;;;;;;;5113061;28;19914;-69
2023/08/22 11:24:58;;;;;;;;;;;;;;;;;;5113889;28;19908;-70
2023/08/22 11:27:23;;;;;;;;;;;;;;;;;;5114363;28;19908;-70
2023/08/22 11:29:49;;;;;;;;;;;;;;;;;;5114189;28;19963;-70
2023/08/22 11:32:15;;;;;;;;;;;;;;;;;;5113862;28;19982;-70
2023/08/22 11:34:41;;;;;;;;;;;;;;;;;;5114228;28;20333;-70
2023/08/22 11:37:08;;;;;;;;;;;;;;;;;;5113891;28;20291;-71
2023/08/22 11:39:34;;;;;;;;;;;;;;;;;;5112670;28;19919;-70
2023/08/22 11:42:00;;;;;;;;;;;;;;;;;;5114302;28;19914;-73
2023/08/22 11:44:26;;;;;;;;;;;;;;;;;;5113629;28;20019;-72
2023/08/22 11:46:52;;;;;;;;;;;;;;;;;;5112523;28;19912;-73
2023/08/22 11:49:18;;;;;;;;;;;;;;;;;;5112050;28;19907;-72
2023/08/22 11:51:43;;;;;;;;;;;;;;;;;;5111706;28;20411;-72
2023/08/22 11:54:09;;;;;;;;;;;;;;;;;;5112099;28;19908;-72
2023/08/22 11:56:35;;;;;;;;;;;;;;;;;;5112123;28;19908;-72
2023/08/22 11:59:01;;;;;;;;;;;;;;;;;;5111806;28;20069;-72
2023/08/22 12:01:27;;;;;;;;;;;;;;;;;;5112284;28;20357;-72
2023/08/22 12:03:53;;;;;;;;;;;;;;;;;;5111898;28;20002;-72
2023/08/22 12:06:19;;;;;;;;;;;;;;;;;;5111609;28;19908;-72
2023/08/22 12:08:45;;;;;;;;;;;;;;;;;;5111913;28;19915;-72
2023/08/22 12:11:11;;;;;;;;;;;;;;;;;;5111863;28;19914;-72
2023/08/22 12:13:37;;;;;;;;;;;;;;;;;;5110535;28;20003;-72
2023/08/22 12:16:03;;;;;;;;;;;;;;;;;;5112214;28;19908;-72
2023/08/22 12:18:35;;;;;;;;;;;;;;;;;;5112595;28;19908;-72
2023/08/22 12:21:01;;;;;;;;;;;;;;;;;;5112012;28;20006;-71
2023/08/22 12:23:27;;;;;;;;;;;;;;;;;;5112469;28;20018;-73
2023/08/22 12:25:53;;;;;;;;;;;;;;;;;;5114742;28;19912;-71
2023/08/22 12:28:18;;;;;;;;;;;;;;;;;;5117276;28;19908;-71
2023/08/22 12:30:45;;;;;;;;;;;;;;;;;;5117940;28;19908;-71
2023/08/22 12:33:10;;;;;;;;;;;;;;;;;;5117361;28;19908;-72
2023/08/22 12:35:36;;;;;;;;;;;;;;;;;;5117537;28;19994;-71
2023/08/22 12:38:02;;;;;;;;;;;;;;;;;;5117471;28;19919;-71
2023/08/22 12:40:28;;;;;;;;;;;;;;;;;;5116866;28;19920;-71
2023/08/22 12:42:54;;;;;;;;;;;;;;;;;;5117397;28;20265;-72
2023/08/22 12:45:20;;;;;;;;;;;;;;;;;;5117420;28;20281;-71
2023/08/22 12:47:48;;;;;;;;;;;;;;;;;;5117020;28;20327;-71
2023/08/22 12:50:14;;;;;;;;;;;;;;;;;;5117538;28;20290;-73
2023/08/22 12:52:40;;;;;;;;;;;;;;;;;;5117691;28;19980;-72
2023/08/22 12:55:09;;;;;;;;;;;;;;;;;;5117156;28;19991;-72
2023/08/22 12:57:35;;;;;;;;;;;;;;;;;;5117202;28;19960;-72
2023/08/22 13:00:02;;;;;;;;;;;;;;;;;;5115718;28;19937;-72
2023/08/22 13:02:28;;;;;;;;;;;;;;;;;;5116764;27;20386;-72
2023/08/22 13:04:54;;;;;;;;;;;;;;;;;;5117036;28;19908;-72
2023/08/22 13:07:20;;;;;;;;;;;;;;;;;;5117153;28;19908;-73
2023/08/22 13:09:46;;;;;;;;;;;;;;;;;;5116523;28;19908;-73
2023/08/22 13:12:12;;;;;;;;;;;;;;;;;;5116826;28;20006;-73
2023/08/22 13:14:38;;;;;;;;;;;;;;;;;;5116874;28;20063;-73
2023/08/22 13:17:04;;;;;;;;;;;;;;;;;;5116476;28;19908;-72
2023/08/22 13:19:29;;;;;;;;;;;;;;;;;;5116642;28;19918;-72
2023/08/22 13:21:55;;;;;;;;;;;;;;;;;;5116706;28;19908;-72
2023/08/22 13:24:21;;;;;;;;;;;;;;;;;;5115026;28;19994;-71
2023/08/22 13:26:47;;;;;;;;;;;;;;;;;;5116618;28;19907;-72
2023/08/22 13:29:13;;;;;;;;;;;;;;;;;;5115282;28;20256;-72
2023/08/22 13:31:39;;;;;;;;;;;;;;;;;;5116068;28;19918;-71
2023/08/22 13:34:05;;;;;;;;;;;;;;;;;;5116351;28;19915;-72
2023/08/22 13:36:31;;;;;;;;;;;;;;;;;;5115912;28;19912;-72
2023/08/22 13:39:00;;;;;;;;;;;;;;;;;;5116070;28;20014;-72
2023/08/22 13:41:26;;;;;;;;;;;;;;;;;;5116376;28;19960;-72
2023/08/22 13:43:52;;;;;;;;;;;;;;;;;;5115859;28;19920;-72
2023/08/22 13:46:18;;;;;;;;;;;;;;;;;;5116200;28;20356;-72
2023/08/22 13:48:45;;;;;;;;;;;;;;;;;;5114896;28;19908;-72
2023/08/22 13:51:11;;;;;;;;;;;;;;;;;;5115615;28;19908;-72
2023/08/22 13:53:37;;;;;;;;;;;;;;;;;;5116026;28;19907;-72
2023/08/22 13:56:03;;;;;;;;;;;;;;;;;;5115946;28;20415;-72
2023/08/22 13:58:29;;;;;;;;;;;;;;;;;;5115547;28;19994;-71
2023/08/22 14:00:55;;;;;;;;;;;;;;;;;;5115910;28;20332;-71
2023/08/22 14:03:20;;;;;;;;;;;;;;;;;;5115870;28;20356;-72
2023/08/22 14:05:46;;;;;;;;;;;;;;;;;;5115498;28;19908;-72
2023/08/22 14:08:12;;;;;;;;;;;;;;;;;;5115728;28;20379;-72
2023/08/22 14:10:38;;;;;;;;;;;;;;;;;;5115687;28;20368;-72
2023/08/22 14:13:04;;;;;;;;;;;;;;;;;;5115330;28;19950;-72
2023/08/22 14:15:30;;;;;;;;;;;;;;;;;;5115648;28;19915;-72
2023/08/22 14:17:56;;;;;;;;;;;;;;;;;;5115565;28;19908;-72
2023/08/22 14:20:22;;;;;;;;;;;;;;;;;;5115113;28;19920;-72
2023/08/22 14:22:48;;;;;;;;;;;;;;;;;;5115404;28;20002;-72
2023/08/22 14:25:14;;;;;;;;;;;;;;;;;;5115381;28;19915;-72
2023/08/22 14:27:40;;;;;;;;;;;;;;;;;;5115048;28;20288;-72
2023/08/22 14:30:06;;;;;;;;;;;;;;;;;;5115312;28;19908;-72
2023/08/22 14:32:32;;;;;;;;;;;;;;;;;;5115289;28;19918;-72
2023/08/22 14:34:58;;;;;;;;;;;;;;;;;;5114785;28;20005;-71
2023/08/22 14:37:24;;;;;;;;;;;;;;;;;;5115232;28;19916;-72
2023/08/22 14:39:51;;;;;;;;;;;;;;;;;;5114587;28;19923;-72
2023/08/22 14:42:17;;;;;;;;;;;;;;;;;;5115126;28;19908;-72
2023/08/22 14:44:43;;;;;;;;;;;;;;;;;;5115235;28;20271;-71
2023/08/22 14:47:09;;;;;;;;;;;;;;;;;;5113363;28;20442;-72
2023/08/22 14:49:35;;;;;;;;;;;;;;;;;;5113153;28;19914;-72
2023/08/22 14:52:01;;;;;;;;;;;;;;;;;;5115266;28;19914;-71
2023/08/22 14:54:27;;;;;;;;;;;;;;;;;;5114480;28;19908;-72
2023/08/22 14:56:53;;;;;;;;;;;;;;;;;;5114928;28;19912;-71
2023/08/22 14:59:21;;;;;;;;;;;;;;;;;;5114794;28;20010;-72
2023/08/22 15:01:47;;;;;;;;;;;;;;;;;;5114518;28;19976;-71
2023/08/22 15:04:13;;;;;;;;;;;;;;;;;;5113491;28;20002;-72
2023/08/22 15:06:39;;;;;;;;;;;;;;;;;;5114933;28;19908;-71
2023/08/22 15:09:06;;;;;;;;;;;;;;;;;;5114245;28;19908;-71
2023/08/22 15:11:32;;;;;;;;;;;;;;;;;;5114599;28;20022;-73
2023/08/22 15:13:58;;;;;;;;;;;;;;;;;;5114498;28;19915;-71
2023/08/22 15:16:24;;;;;;;;;;;;;;;;;;5113170;28;19907;-72
2023/08/22 15:18:51;;;;;;;;;;;;;;;;;;5113166;28;19994;-71
2023/08/22 15:21:17;;;;;;;;;;;;;;;;;;5114449;28;19908;-72
2023/08/22 15:23:43;;;;;;;;;;;;;;;;;;5114146;28;19955;-72
2023/08/22 15:26:09;;;;;;;;;;;;;;;;;;5114568;28;19953;-73
2023/08/22 15:28:35;;;;;;;;;;;;;;;;;;5114421;28;19919;-73
2023/08/22 15:31:01;;;;;;;;;;;;;;;;;;5113946;28;19947;-72
2023/08/22 15:33:30;;;;;;;;;;;;;;;;;;5114364;28;19908;-72
2023/08/22 15:35:56;;;;;;;;;;;;;;;;;;5114189;28;20388;-73
2023/08/22 15:38:22;;;;;;;;;;;;;;;;;;5113883;28;19908;-72
2023/08/22 15:40:48;;;;;;;;;;;;;;;;;;5113905;28;20107;-72
2023/08/22 15:43:14;;;;;;;;;;;;;;;;;;5113828;28;19911;-73
2023/08/22 15:45:39;;;;;;;;;;;;;;;;;;5112896;28;19912;-73
2023/08/22 15:48:06;;;;;;;;;;;;;;;;;;5114134;28;19911;-73
2023/08/22 15:50:32;;;;;;;;;;;;;;;;;;5113689;28;20020;-71
2023/08/22 15:52:58;;;;;;;;;;;;;;;;;;5114099;28;19911;-72
2023/08/22 15:55:23;;;;;;;;;;;;;;;;;;5112796;28;19911;-72
2023/08/22 15:57:49;;;;;;;;;;;;;;;;;;5113727;28;20012;-73
2023/08/22 16:00:15;;;;;;;;;;;;;;;;;;5113991;28;19923;-72
2023/08/22 16:02:41;;;;;;;;;;;;;;;;;;5118116;28;19930;-72
2023/08/22 16:05:08;;;;;;;;;;;;;;;;;;5117933;28;19908;-72
2023/08/22 16:07:33;;;;;;;;;;;;;;;;;;5118143;28;19908;-72
2023/08/22 16:09:59;;;;;;;;;;;;;;;;;;5118095;28;19915;-72
2023/08/22 16:12:25;;;;;;;;;;;;;;;;;;5117708;28;19915;-72
2023/08/22 16:14:51;;;;;;;;;;;;;;;;;;5117893;28;19986;-72
2023/08/22 16:17:17;;;;;;;;;;;;;;;;;;5117864;28;19912;-72
2023/08/22 16:19:45;;;;;;;;;;;;;;;;;;5117423;27;19920;-72
2023/08/22 16:22:11;;;;;;;;;;;;;;;;;;5117859;27;19907;-72
2023/08/22 16:24:37;;;;;;;;;;;;;;;;;;5117710;28;19908;-71
2023/08/22 16:27:03;;;;;;;;;;;;;;;;;;5117364;28;20014;-71
2023/08/22 16:29:29;;;;;;;;;;;;;;;;;;5117609;28;19915;-72
2023/08/22 16:31:54;;;;;;;;;;;;;;;;;;5117602;28;19915;-71
2023/08/22 16:34:20;;;;;;;;;;;;;;;;;;5117170;28;19950;-71
2023/08/22 16:36:46;;;;;;;;;;;;;;;;;;5117539;28;19908;-71
2023/08/22 16:39:13;;;;;;;;;;;;;;;;;;5117186;28;19923;-71
2023/08/22 16:41:39;;;;;;;;;;;;;;;;;;5117026;28;20007;-71
2023/08/22 16:44:07;;;;;;;;;;;;;;;;;;5117651;28;19958;-72
2023/08/22 16:46:33;;;;;;;;;;;;;;;;;;5116950;28;19919;-72
2023/08/22 16:48:59;;;;;;;;;;;;;;;;;;5117262;28;19960;-71
2023/08/22 16:51:26;;;;;;;;;;;;;;;;;;5117259;28;20061;-71
2023/08/22 16:53:52;;;;;;;;;;;;;;;;;;5116765;27;20000;-71
2023/08/22 16:56:18;;;;;;;;;;;;;;;;;;5117078;28;19998;-71
2023/08/22 16:58:44;;;;;;;;;;;;;;;;;;5116977;28;20434;-71
2023/08/22 17:01:10;;;;;;;;;;;;;;;;;;5116654;28;19951;-71
2023/08/22 17:03:37;;;;;;;;;;;;;;;;;;5117037;28;20011;-71
2023/08/22 17:06:03;;;;;;;;;;;;;;;;;;5116972;28;19912;-71
2023/08/22 17:08:29;;;;;;;;;;;;;;;;;;5116540;28;20395;-71
2023/08/22 17:10:55;;;;;;;;;;;;;;;;;;5116886;28;20023;-71
2023/08/22 17:13:21;;;;;;;;;;;;;;;;;;5116566;28;19908;-71
2023/08/22 17:15:47;;;;;;;;;;;;;;;;;;5116406;28;19908;-71
2023/08/22 17:18:14;;;;;;;;;;;;;;;;;;5116664;28;19915;-71
2023/08/22 17:20:40;;;;;;;;;;;;;;;;;;5116848;28;19965;-72
2023/08/22 17:23:05;;;;;;;;;;;;;;;;;;5116295;28;19908;-71
2023/08/22 17:25:31;;;;;;;;;;;;;;;;;;5116866;28;19908;-71
2023/08/22 17:27:58;;;;;;;;;;;;;;;;;;5115308;28;20411;-72
2023/08/22 17:30:24;;;;;;;;;;;;;;;;;;5114742;28;19907;-71
2023/08/22 17:32:50;;;;;;;;;;;;;;;;;;5116699;28;19953;-72
2023/08/22 17:35:16;;;;;;;;;;;;;;;;;;5116450;28;19931;-72
2023/08/22 17:37:42;;;;;;;;;;;;;;;;;;5115803;27;20391;-71
2023/08/22 17:40:08;;;;;;;;;;;;;;;;;;5114769;28;20372;-71
2023/08/22 17:42:34;;;;;;;;;;;;;;;;;;5116290;28;19941;-71
2023/08/22 17:45:00;;;;;;;;;;;;;;;;;;5115805;28;19914;-73
2023/08/22 17:47:26;;;;;;;;;;;;;;;;;;5116172;28;20279;-72
2023/08/22 17:49:52;;;;;;;;;;;;;;;;;;5115881;28;20279;-72
2023/08/22 17:52:18;;;;;;;;;;;;;;;;;;5116675;28;20384;-72
2023/08/22 17:54:44;;;;;;;;;;;;;;;;;;5116016;28;19908;-72
2023/08/22 17:57:10;;;;;;;;;;;;;;;;;;5115561;28;19912;-74